»·PEaware :: N2157Y KCMA-KSNA

N2157Y :: KCMA-KSNA

FLIGHT INFORMATION

Flight Status: Arrived
Operator: Privately registered:
United States
More flights under this callsign
Pilot: Brian M. (32694)
Aircraft: CESSNA 172 SKYHAWK
(C172)
More flights by this aircraft type
Origin: KCMA Camarillo
United States
Destination: KSNA John Wayne-Orange Co
United States
More flights between these airports :: More routes between these airports
Route:
File this flight plan on PilotEdge
Remarks:
Altitude:
(Current/Filed)
5,500ft
Speed:
(Current/Filed)
110kts
Departed: 13-Jan-21 03:35 PM
Arrived: 13-Jan-21 04:21 PM
Distance/Time
Traveled:
69nm/0:45
Distance/Time
To Go:
Arrived

Flight Plot

Page will automatically refresh every two minutes.


Map Options




Map Legend


Flown Route
Filed Route
Departure Airport
Arrival Airport
Navaid (VOR, NDB)
Fix

Horizontal Profiles

Position Reports

Time Latitude Longitude Heading Altitude Ground
Speed
13-Jan-21 15:22 34.210700 -119.093297 181 70ft 0kts
13-Jan-21 15:23 34.210700 -119.093297 181 70ft 0kts
13-Jan-21 15:24 34.210700 -119.093297 181 70ft 0kts
13-Jan-21 15:25 34.210700 -119.093297 181 70ft 0kts
13-Jan-21 15:26 34.210700 -119.093297 181 70ft 0kts
13-Jan-21 15:27 34.210700 -119.093297 181 70ft 0kts
13-Jan-21 15:28 34.210700 -119.093297 181 70ft 0kts
13-Jan-21 15:29 34.210700 -119.093297 181 70ft 0kts
13-Jan-21 15:30 34.211015 -119.092952 92 71ft 8kts
13-Jan-21 15:31 34.210944 -119.087476 92 76ft 19kts
13-Jan-21 15:32 34.211955 -119.084612 359 79ft 13kts
13-Jan-21 15:33 34.212787 -119.084629 353 78ft 0kts
13-Jan-21 15:34 34.213715 -119.088716 270 74ft 63kts
13-Jan-21 15:35 34.214727 -119.119039 272 602ft 91kts
13-Jan-21 15:36 34.201918 -119.112978 97 1380ft 92kts
13-Jan-21 15:37 34.199487 -119.081247 95 2059ft 95kts
13-Jan-21 15:38 34.197739 -119.049017 92 2689ft 97kts
13-Jan-21 15:40 34.196261 -119.016551 92 3303ft 97kts
13-Jan-21 15:41 34.196201 -118.981410 90 3130ft 152kts
13-Jan-21 15:42 34.195516 -118.940782 89 3753ft 92kts
13-Jan-21 15:43 34.195993 -118.910878 89 4152ft 88kts
13-Jan-21 15:44 34.196211 -118.880478 89 4685ft 93kts
13-Jan-21 15:45 34.193601 -118.848899 96 5192ft 96kts
13-Jan-21 15:46 34.192478 -118.814282 91 5481ft 115kts
13-Jan-21 15:47 34.191912 -118.774096 91 5495ft 120kts
13-Jan-21 15:48 34.190545 -118.733549 98 5496ft 121kts
13-Jan-21 15:49 34.184797 -118.693811 101 5511ft 119kts
13-Jan-21 15:50 34.180307 -118.654006 93 5526ft 120kts
13-Jan-21 15:51 34.178595 -118.613808 94 5546ft 119kts
13-Jan-21 15:52 34.174419 -118.573912 107 5560ft 120kts
13-Jan-21 15:53 34.149453 -118.550157 161 5545ft 118kts
13-Jan-21 15:54 34.117962 -118.538974 173 5562ft 117kts
13-Jan-21 15:55 34.091503 -118.517201 136 5483ft 120kts
13-Jan-21 15:56 34.062816 -118.498397 154 5568ft 115kts
13-Jan-21 15:57 34.034458 -118.479995 159 5593ft 117kts
13-Jan-21 15:57 34.008629 -118.467880 160 5515ft 120kts
13-Jan-21 15:58 33.978316 -118.452197 158 5499ft 116kts
13-Jan-21 16:00 33.943090 -118.436998 158 5501ft 115kts
13-Jan-21 16:00 33.921513 -118.419388 128 5500ft 116kts
13-Jan-21 16:01 33.896796 -118.395205 154 5500ft 115kts
13-Jan-21 16:03 33.869367 -118.364714 146 5501ft 115kts
13-Jan-21 16:03 33.848343 -118.344775 138 5499ft 116kts
13-Jan-21 16:04 33.824955 -118.318174 137 5498ft 116kts
13-Jan-21 16:05 33.801546 -118.291288 137 5500ft 116kts
13-Jan-21 16:06 33.775923 -118.268060 146 5499ft 116kts
13-Jan-21 16:07 33.755950 -118.237426 127 5500ft 116kts
13-Jan-21 16:08 33.736408 -118.205903 127 5399ft 124kts
13-Jan-21 16:09 33.714687 -118.170932 127 4899ft 132kts
13-Jan-21 16:10 33.693105 -118.136214 127 4391ft 127kts
13-Jan-21 16:11 33.675794 -118.099879 108 3892ft 126kts
13-Jan-21 16:12 33.665585 -118.061446 108 3527ft 111kts
13-Jan-21 16:13 33.656982 -118.028247 107 3502ft 100kts
13-Jan-21 16:14 33.651057 -117.995770 90 3507ft 108kts
13-Jan-21 16:15 33.655775 -117.957383 59 3039ft 114kts
13-Jan-21 16:16 33.675731 -117.934678 38 2377ft 85kts
13-Jan-21 16:17 33.694796 -117.910807 52 1353ft 86kts
13-Jan-21 16:18 33.703737 -117.886568 94 813ft 77kts
13-Jan-21 16:19 33.695750 -117.863803 152 467ft 76kts
13-Jan-21 16:20 33.677931 -117.867438 206 53ft 33kts
13-Jan-21 16:21 33.676003 -117.869867 298 55ft 0kts
13-Jan-21 16:22 33.676003 -117.869867 298 55ft 0kts
13-Jan-21 16:23 33.676364 -117.871173 209 54ft 0kts
13-Jan-21 16:24 33.676364 -117.871173 209 54ft 0kts
13-Jan-21 16:25 33.676364 -117.871173 209 54ft 0kts
13-Jan-21 16:26 33.676364 -117.871173 209 54ft 0kts
13-Jan-21 16:27 33.676364 -117.871173 209 54ft 0kts
13-Jan-21 16:28 33.676364 -117.871173 209 54ft 0kts
13-Jan-21 16:29 33.676364 -117.871173 209 54ft 0kts
13-Jan-21 16:30 33.676364 -117.871173 209 54ft 0kts
13-Jan-21 16:31 33.676364 -117.871173 209 54ft 0kts
13-Jan-21 16:32 33.676364 -117.871173 209 54ft 0kts
13-Jan-21 16:33 33.676364 -117.871173 209 54ft 0kts
13-Jan-21 16:34 33.676364 -117.871173 209 54ft 0kts

Navigation Log

Ident Type
Flight plan parsing failed, navigation log unavailable